createdAt,value
2022-11-08T00:01:10.777Z,52.50
2022-11-08T00:03:38.960Z,52.60
2022-11-08T00:06:25.783Z,52.38
2022-11-08T00:09:12.589Z,52.40
2022-11-08T00:11:59.255Z,52.37
2022-11-08T00:14:30.080Z,52.53
2022-11-08T00:16:58.800Z,52.57
2022-11-08T00:19:37.969Z,52.43
2022-11-08T00:22:05.959Z,52.54
2022-11-08T00:24:35.264Z,52.70
2022-11-08T00:27:11.646Z,52.42
2022-11-08T00:29:40.984Z,52.59
2022-11-08T00:32:16.587Z,52.53
2022-11-08T00:34:44.969Z,52.54
2022-11-08T00:37:13.096Z,52.55
2022-11-08T00:39:44.613Z,52.34
2022-11-08T00:42:12.464Z,52.83
2022-11-08T00:44:40.783Z,52.67
2022-11-08T00:47:08.992Z,52.72
2022-11-08T00:49:37.084Z,52.70
2022-11-08T00:52:06.011Z,52.74
2022-11-08T00:54:34.052Z,52.84
2022-11-08T00:57:02.279Z,53.01
2022-11-08T00:59:30.403Z,52.80
2022-11-08T01:01:58.325Z,52.74
2022-11-08T01:04:26.527Z,52.78
2022-11-08T01:06:55.783Z,52.74
2022-11-08T01:09:23.706Z,52.74
2022-11-08T01:11:51.915Z,52.86
2022-11-08T01:14:19.577Z,52.91
2022-11-08T01:16:47.433Z,52.82
2022-11-08T01:19:15.485Z,52.99
2022-11-08T01:21:43.435Z,52.89
2022-11-08T01:24:11.703Z,52.87
2022-11-08T01:26:40.608Z,52.90
2022-11-08T01:29:09.448Z,53.10
2022-11-08T01:31:37.355Z,53.10
2022-11-08T01:34:05.514Z,53.18
2022-11-08T01:36:33.267Z,53.12
2022-11-08T01:39:01.829Z,53.10
2022-11-08T01:41:29.883Z,53.06
2022-11-08T01:43:59.770Z,53.00
2022-11-08T01:46:46.737Z,52.71
2022-11-08T01:49:20.947Z,52.75
2022-11-08T01:52:17.265Z,52.63
2022-11-08T01:54:57.269Z,52.81
2022-11-08T01:57:52.385Z,52.85
2022-11-08T02:00:20.548Z,52.85
2022-11-08T02:02:57.610Z,52.70
2022-11-08T02:05:27.323Z,52.78
2022-11-08T02:08:15.451Z,52.56
2022-11-08T02:10:48.108Z,52.91
2022-11-08T02:13:23.669Z,52.84
2022-11-08T02:15:52.593Z,52.93
2022-11-08T02:18:24.722Z,53.03
2022-11-08T02:20:58.317Z,53.30
2022-11-08T02:24:01.529Z,53.04
2022-11-08T02:26:35.118Z,52.95
2022-11-08T02:29:26.906Z,52.91
2022-11-08T02:31:56.037Z,53.20
2022-11-08T02:34:42.436Z,53.10
2022-11-08T02:37:13.972Z,53.11
2022-11-08T02:39:44.413Z,52.81
2022-11-08T02:42:19.873Z,52.71
2022-11-08T02:44:48.115Z,52.73
2022-11-08T02:47:16.656Z,52.84
2022-11-08T02:49:44.541Z,52.80
2022-11-08T02:52:12.792Z,53.02
2022-11-08T02:54:40.906Z,52.93
2022-11-08T02:57:09.284Z,52.96
2022-11-08T02:59:37.101Z,53.10
2022-11-08T03:02:05.206Z,52.88
2022-11-08T03:04:33.952Z,53.23
2022-11-08T05:27:36.056Z,54.84
2022-11-08T05:30:05.261Z,54.41
2022-11-08T05:32:34.296Z,54.63
2022-11-08T05:35:02.267Z,54.75
2022-11-08T05:37:30.380Z,54.83
2022-11-08T05:39:58.125Z,54.41
2022-11-08T05:42:26.169Z,54.34
2022-11-08T05:44:57.990Z,54.48
2022-11-08T05:47:26.925Z,54.23
2022-11-08T05:49:55.667Z,54.17
2022-11-08T05:52:25.571Z,54.24
2022-11-08T05:54:53.900Z,54.63
2022-11-08T05:57:22.896Z,54.33
2022-11-08T05:59:51.136Z,54.20
2022-11-08T06:02:19.499Z,54.22
2022-11-08T06:04:47.762Z,54.30
2022-11-08T06:07:15.959Z,54.20
2022-11-08T06:09:44.853Z,54.14
2022-11-08T06:12:13.002Z,54.51
2022-11-08T06:14:42.143Z,54.61
2022-11-08T06:17:11.462Z,54.49
2022-11-08T06:19:39.525Z,54.73
2022-11-08T06:22:08.128Z,54.34
2022-11-08T06:24:36.120Z,54.60
2022-11-08T06:27:04.157Z,54.55
2022-11-08T06:29:33.347Z,54.58
2022-11-08T06:32:02.365Z,54.31
2022-11-08T06:34:30.316Z,54.52
2022-11-08T06:36:59.374Z,54.53
2022-11-08T06:39:27.620Z,54.74
2022-11-08T06:41:55.630Z,54.62
2022-11-08T06:44:23.551Z,54.69
2022-11-08T06:46:51.882Z,54.90
2022-11-08T06:49:20.337Z,54.72
2022-11-08T06:51:49.189Z,54.78
2022-11-08T06:54:21.011Z,54.85
2022-11-08T06:56:51.110Z,55.10
2022-11-08T06:59:21.811Z,54.87
2022-11-08T07:01:51.249Z,55.06
2022-11-08T07:04:21.063Z,55.18
2022-11-08T07:06:50.354Z,55.08
2022-11-08T07:09:19.382Z,55.46
2022-11-08T07:11:48.265Z,55.56
2022-11-08T07:14:16.011Z,55.55
2022-11-08T07:16:44.476Z,55.82
2022-11-08T07:19:13.544Z,55.88
2022-11-08T07:21:41.903Z,55.84
2022-11-08T07:24:10.122Z,55.74
2022-11-08T07:26:39.181Z,55.64
2022-11-08T07:29:07.172Z,55.96
2022-11-08T07:31:36.269Z,55.85
2022-11-08T07:34:04.775Z,56.06
2022-11-08T07:36:33.087Z,55.78
2022-11-08T07:39:06.462Z,56.09
2022-11-08T07:41:35.020Z,56.08
2022-11-08T07:44:03.199Z,56.06
2022-11-08T07:46:31.841Z,56.08
2022-11-08T07:49:03.325Z,56.02
2022-11-08T07:51:31.493Z,56.25
2022-11-08T07:54:02.999Z,56.09
2022-11-08T07:56:31.438Z,56.07
2022-11-08T07:58:59.628Z,56.39
2022-11-08T08:01:27.643Z,56.30
2022-11-08T08:03:58.066Z,56.29
2022-11-08T08:06:27.701Z,56.34
2022-11-08T08:08:55.793Z,56.32
2022-11-08T08:11:23.851Z,56.32
2022-11-08T08:13:52.538Z,56.49
2022-11-08T08:16:25.114Z,56.54
2022-11-08T08:18:56.316Z,56.52
2022-11-08T08:21:24.578Z,56.62
2022-11-08T08:23:54.078Z,56.57
2022-11-08T08:26:22.104Z,56.77
2022-11-08T08:28:49.978Z,56.77
2022-11-08T08:31:18.537Z,56.87
2022-11-08T08:33:46.980Z,56.91
2022-11-08T08:36:15.582Z,56.91
2022-11-08T08:38:44.889Z,56.99
2022-11-08T08:41:14.186Z,57.16
2022-11-08T08:43:43.179Z,57.05
2022-11-08T08:46:12.502Z,57.02
2022-11-08T08:48:41.932Z,56.82
2022-11-08T08:51:11.716Z,56.89
2022-11-08T08:53:41.026Z,56.77
2022-11-08T08:56:10.940Z,56.76
2022-11-08T08:58:39.689Z,56.75
2022-11-08T09:03:59.121Z,56.92
2022-11-08T09:06:27.301Z,56.87
2022-11-08T09:08:55.544Z,56.92
2022-11-08T09:11:43.358Z,56.85
2022-11-08T09:14:14.985Z,57.02
2022-11-08T09:16:43.721Z,57.01
2022-11-08T09:19:13.248Z,56.91
2022-11-08T09:21:41.609Z,56.85
2022-11-08T09:24:09.559Z,56.79
2022-11-08T09:26:37.583Z,56.72
2022-11-08T09:29:05.483Z,56.63
2022-11-08T09:31:33.630Z,56.50
2022-11-08T09:34:01.623Z,56.46
2022-11-08T09:36:30.429Z,56.43
2022-11-08T09:38:59.901Z,56.37
2022-11-08T09:42:01.411Z,56.37
2022-11-08T09:44:46.847Z,56.53
2022-11-08T09:47:36.604Z,56.50
2022-11-08T09:50:31.248Z,56.42
2022-11-08T09:53:51.926Z,56.14
2022-11-08T09:56:32.778Z,56.37
2022-11-08T09:59:35.323Z,56.19
2022-11-08T10:02:17.340Z,56.29
2022-11-08T10:05:05.448Z,56.19
2022-11-08T10:07:42.870Z,56.11
2022-11-08T10:11:03.658Z,56.05
2022-11-08T10:13:44.678Z,55.82
2022-11-08T10:17:03.084Z,55.97
2022-11-08T10:20:10.553Z,55.92
2022-11-08T10:23:29.002Z,55.77
2022-11-08T10:26:06.102Z,55.95
2022-11-08T10:28:48.012Z,55.75
2022-11-08T10:31:20.702Z,55.63
2022-11-08T10:33:56.766Z,55.59
2022-11-08T10:37:00.491Z,55.27
2022-11-08T10:39:34.369Z,55.46
2022-11-08T10:42:20.645Z,55.02
2022-11-08T10:44:49.111Z,55.08
2022-11-08T10:47:28.768Z,54.87
2022-11-08T10:50:02.484Z,55.15
2022-11-08T10:52:56.384Z,54.83
2022-11-08T10:55:30.954Z,54.78
2022-11-08T10:57:59.588Z,54.84
2022-11-08T11:00:33.192Z,54.23
2022-11-08T11:03:28.895Z,54.18
2022-11-08T11:06:08.240Z,54.19
2022-11-08T11:08:55.506Z,53.94
2022-11-08T11:11:33.788Z,53.85
2022-11-08T11:14:28.189Z,53.70
2022-11-08T11:17:17.031Z,53.72
2022-11-08T11:19:56.131Z,53.60
2022-11-08T11:22:35.870Z,53.42
2022-11-08T11:25:14.174Z,53.31
2022-11-08T11:27:44.426Z,53.23
2022-11-08T11:30:30.515Z,53.14
2022-11-08T11:33:06.602Z,53.08
2022-11-08T11:36:03.548Z,52.91
2022-11-08T11:38:38.491Z,52.92
2022-11-08T11:42:44.571Z,52.80
2022-11-08T11:45:26.183Z,52.64
2022-11-08T11:48:30.219Z,52.26
2022-11-08T11:50:59.494Z,52.47
2022-11-08T11:53:40.221Z,52.17
2022-11-08T11:56:42.797Z,51.77
2022-11-08T11:59:41.544Z,51.81
2022-11-08T12:02:43.664Z,51.63
2022-11-08T12:06:04.931Z,51.77
2022-11-08T12:09:01.385Z,51.75
2022-11-08T12:12:12.989Z,51.80
2022-11-08T12:15:05.250Z,51.56
2022-11-08T12:18:03.454Z,51.49
2022-11-08T12:20:54.983Z,51.20
2022-11-08T12:23:49.862Z,51.04
2022-11-08T12:27:09.708Z,51.02
2022-11-08T12:30:17.877Z,50.71
2022-11-08T12:33:33.825Z,50.58
2022-11-08T12:36:41.689Z,50.53
2022-11-08T12:39:45.522Z,50.57
2022-11-08T12:42:57.581Z,50.16
2022-11-08T12:45:46.784Z,50.50
2022-11-08T12:49:00.018Z,50.18
2022-11-08T12:52:27.816Z,50.50
2022-11-08T12:55:02.459Z,50.10
2022-11-08T12:57:32.147Z,49.78
2022-11-08T13:00:16.103Z,49.42
2022-11-08T13:02:57.565Z,49.77
2022-11-08T13:05:35.957Z,49.58
2022-11-08T13:08:23.367Z,49.50
2022-11-08T13:11:08.420Z,49.44
2022-11-08T13:13:59.879Z,49.08
2022-11-08T13:16:39.529Z,49.08
2022-11-08T13:19:26.193Z,49.14
2022-11-08T13:21:55.243Z,49.42
2022-11-08T13:24:44.344Z,49.26
2022-11-08T13:27:25.121Z,49.09
2022-11-08T13:29:53.888Z,49.27
2022-11-08T13:32:47.520Z,49.08
2022-11-08T13:35:42.560Z,49.29
2022-11-08T13:38:35.728Z,49.43
2022-11-08T13:41:21.804Z,49.75
2022-11-08T13:43:56.847Z,50.20
2022-11-08T13:46:30.679Z,50.23
2022-11-08T13:49:17.595Z,50.23
2022-11-08T13:51:46.565Z,50.96
2022-11-08T13:54:22.116Z,50.54
2022-11-08T13:57:56.752Z,50.33
2022-11-08T14:00:55.980Z,50.70
2022-11-08T14:03:33.162Z,50.19
2022-11-08T14:06:07.017Z,49.96
2022-11-08T14:09:30.609Z,49.86
2022-11-08T14:12:26.747Z,49.91
2022-11-08T14:15:10.553Z,49.39
2022-11-08T14:18:13.500Z,49.32
2022-11-08T14:20:47.054Z,49.25
2022-11-08T14:23:24.255Z,49.47
2022-11-08T14:26:00.001Z,49.36
2022-11-08T14:28:54.726Z,48.87
2022-11-08T14:31:27.264Z,49.00
2022-11-08T14:33:57.487Z,49.10
2022-11-08T14:36:28.784Z,48.77
2022-11-08T14:39:03.810Z,48.79
2022-11-08T14:41:34.419Z,48.86
2022-11-08T14:44:05.315Z,48.66
2022-11-08T14:46:40.290Z,48.88
2022-11-08T14:49:31.797Z,48.76
2022-11-08T14:52:17.672Z,48.87
2022-11-08T14:54:47.981Z,49.16
2022-11-08T14:57:35.797Z,48.78
2022-11-08T15:00:13.171Z,48.94
2022-11-08T15:02:50.729Z,49.23
2022-11-08T15:05:59.534Z,49.35
2022-11-08T15:08:32.477Z,49.52
2022-11-08T15:11:33.590Z,49.39
2022-11-08T15:14:18.697Z,49.40
2022-11-08T15:16:57.470Z,49.66
2022-11-08T15:19:44.759Z,49.65
2022-11-08T15:22:43.965Z,49.61
2022-11-08T15:25:35.430Z,49.87
2022-11-08T15:28:26.290Z,50.09
2022-11-08T15:31:00.297Z,50.57
2022-11-08T15:33:38.450Z,50.66
2022-11-08T15:36:16.249Z,50.56
2022-11-08T15:38:49.709Z,50.87
2022-11-08T15:41:40.233Z,50.87
2022-11-08T15:44:15.352Z,51.19
2022-11-08T15:46:44.101Z,51.16
2022-11-08T15:49:23.127Z,51.22
2022-11-08T15:51:54.432Z,51.28
2022-11-08T15:54:24.463Z,51.44
2022-11-08T15:56:55.198Z,51.35
2022-11-08T15:59:28.876Z,51.39
2022-11-08T16:01:59.855Z,51.45
2022-11-08T16:04:32.069Z,51.60
2022-11-08T16:07:00.383Z,51.89
2022-11-08T16:09:28.522Z,51.98
2022-11-08T16:11:58.470Z,52.09
2022-11-08T16:14:26.724Z,52.19
2022-11-08T16:16:54.673Z,52.23
2022-11-08T16:19:25.100Z,52.14
2022-11-08T16:21:53.978Z,52.27
2022-11-08T16:24:21.835Z,52.21
2022-11-08T16:26:49.893Z,52.39
2022-11-08T16:29:21.717Z,52.42
2022-11-08T16:31:51.397Z,52.50
2022-11-08T16:34:20.571Z,52.60
2022-11-08T16:36:50.326Z,52.76
2022-11-08T16:39:26.312Z,52.82
2022-11-08T16:41:54.380Z,52.97
2022-11-08T16:44:32.687Z,52.85
2022-11-08T16:47:01.565Z,53.06
2022-11-08T16:49:32.470Z,53.27
2022-11-08T16:52:00.497Z,53.26
2022-11-08T16:54:28.649Z,53.51
2022-11-08T16:57:20.572Z,53.44
2022-11-08T16:59:45.966Z,53.40
2022-11-08T17:02:34.135Z,53.71
2022-11-08T17:05:02.819Z,53.63
2022-11-08T17:07:32.138Z,53.77
2022-11-08T17:10:00.307Z,53.86
2022-11-08T17:12:29.639Z,53.99
2022-11-08T17:14:58.360Z,53.96
2022-11-08T17:17:26.471Z,54.04
2022-11-08T17:19:55.320Z,54.16
2022-11-08T17:22:24.139Z,54.27
2022-11-08T17:24:52.203Z,54.32
2022-11-08T17:27:20.686Z,54.38
2022-11-08T17:29:49.219Z,54.68
2022-11-08T17:32:17.318Z,54.62
2022-11-08T17:34:46.553Z,54.49
2022-11-08T17:37:17.027Z,54.57
2022-11-08T17:39:45.422Z,54.49
2022-11-08T17:42:13.647Z,54.54
2022-11-08T17:44:44.603Z,54.59
2022-11-08T17:47:12.880Z,54.67
2022-11-08T17:49:43.863Z,54.74
2022-11-08T17:52:12.583Z,54.68
2022-11-08T17:54:42.133Z,54.69
2022-11-08T17:57:10.413Z,54.58
2022-11-08T17:59:39.097Z,54.50
2022-11-08T18:02:08.118Z,54.52
2022-11-08T18:04:36.937Z,54.61
2022-11-08T18:07:06.828Z,54.65
2022-11-08T18:09:34.956Z,54.72
2022-11-08T18:12:03.980Z,54.78
2022-11-08T18:14:33.469Z,54.80
2022-11-08T18:17:02.080Z,54.75
2022-11-08T18:19:31.839Z,54.78
2022-11-08T18:22:00.731Z,54.72
2022-11-08T18:24:28.904Z,55.01
2022-11-08T18:26:56.655Z,54.84
2022-11-08T18:29:25.733Z,54.95
2022-11-08T18:31:53.991Z,54.87
2022-11-08T18:34:22.126Z,55.03
2022-11-08T18:36:50.205Z,55.05
2022-11-08T18:39:19.643Z,54.99
2022-11-08T18:41:47.759Z,55.12
2022-11-08T18:44:15.963Z,55.15
2022-11-08T18:46:44.322Z,55.16
2022-11-08T18:49:12.687Z,55.26
2022-11-08T18:51:41.209Z,55.20
2022-11-08T18:54:10.123Z,55.18
2022-11-08T18:56:38.636Z,55.26
2022-11-08T18:59:07.261Z,55.11
2022-11-08T19:01:36.099Z,54.99
2022-11-08T19:04:04.272Z,55.02
2022-11-08T19:06:32.839Z,54.94
2022-11-08T19:09:01.954Z,54.88
2022-11-08T19:11:31.496Z,55.01
2022-11-08T19:14:02.052Z,54.97
2022-11-08T19:16:32.751Z,55.04
2022-11-08T19:19:01.300Z,55.01
2022-11-08T19:21:31.616Z,54.96
2022-11-08T19:24:01.116Z,55.10
2022-11-08T19:26:31.478Z,55.08
2022-11-08T19:29:00.563Z,55.09
2022-11-08T19:31:29.176Z,54.93
2022-11-08T19:33:59.883Z,55.04
2022-11-08T19:36:30.686Z,55.07
2022-11-08T19:39:02.766Z,55.12
2022-11-08T19:41:31.788Z,55.22
2022-11-08T19:44:02.299Z,55.20
2022-11-08T19:46:33.026Z,55.21
2022-11-08T19:49:04.606Z,55.36
2022-11-08T19:51:36.208Z,55.41
2022-11-08T19:54:14.012Z,55.30
2022-11-08T19:59:32.300Z,55.40
